Time;durP1;ratioP1;P1;durP2;ratioP2;P2;SDS_P1;SDS_P2;PMS_P1;PMS_P2;Temp;Humidity;BMP_temperature;BMP_pressure;BME280_temperature;BME280_humidity;BME280_pressure;Samples;Min_cycle;Max_cycle;Signal;HPM_P1;HPM_P2
2023/03/15 00:01:45;;;;;;;13.60;3.97;;;;;;;2.40;99.42;100931.47;5024127;28;20035;-73
2023/03/15 00:04:12;;;;;;;20.02;5.32;;;;;;;2.41;100.00;100929.72;5042716;28;20102;-73
2023/03/15 00:06:37;;;;;;;22.80;4.85;;;;;;;2.30;100.00;100935.56;5027339;28;20029;-73
2023/03/15 00:09:03;;;;;;;21.77;4.63;;;;;;;2.36;100.00;100921.53;5021540;28;20766;-73
2023/03/15 00:11:29;;;;;;;18.45;4.78;;;;;;;2.40;100.00;100923.78;5023845;28;20614;-73
2023/03/15 00:13:56;;;;;;;16.10;5.38;;;;;;;2.42;100.00;100923.69;5040296;28;20032;-72
2023/03/15 00:16:26;;;;;;;18.58;6.15;;;;;;;2.46;100.00;100936.19;5003944;28;20029;-73
2023/03/15 00:18:55;;;;;;;16.10;5.30;;;;;;;2.48;100.00;100946.31;5021661;28;20458;-73
2023/03/15 00:21:21;;;;;;;21.75;6.20;;;;;;;2.37;100.00;100941.88;5027194;28;20037;-73
2023/03/15 00:23:48;;;;;;;28.88;5.72;;;;;;;2.31;100.00;100950.78;5018314;28;20120;-73
2023/03/15 00:26:13;;;;;;;17.02;5.47;;;;;;;2.32;100.00;100957.56;5044874;28;20479;-72
2023/03/15 00:28:39;;;;;;;30.35;6.65;;;;;;;2.23;100.00;100958.16;5016219;28;20037;-73
2023/03/15 00:31:15;;;;;;;21.05;6.38;;;;;;;2.26;100.00;100947.72;5024062;28;20034;-73
2023/03/15 00:33:40;;;;;;;22.55;5.90;;;;;;;2.25;100.00;100953.75;5036784;28;20037;-74
2023/03/15 00:36:08;;;;;;;18.48;6.10;;;;;;;2.24;100.00;100952.13;5016663;28;20036;-73
2023/03/15 00:38:34;;;;;;;18.77;5.95;;;;;;;2.17;100.00;100945.75;5020204;28;20490;-72
2023/03/15 00:41:08;;;;;;;17.90;6.03;;;;;;;2.25;100.00;100955.50;5043685;28;20514;-73
2023/03/15 00:43:34;;;;;;;21.15;5.53;;;;;;;2.19;100.00;100949.03;5040934;28;20040;-72
2023/03/15 00:45:59;;;;;;;12.90;5.13;;;;;;;2.22;100.00;100953.94;5023357;28;20030;-72
2023/03/15 00:48:25;;;;;;;21.08;6.03;;;;;;;2.29;100.00;100964.59;5032871;28;20116;-73
2023/03/15 00:50:50;;;;;;;13.63;5.22;;;;;;;2.27;100.00;100954.47;5043809;28;20116;-72
2023/03/15 00:53:16;;;;;;;23.50;7.47;;;;;;;2.26;100.00;100952.00;5009124;28;20525;-72
2023/03/15 00:55:42;;;;;;;25.95;7.13;;;;;;;2.28;100.00;100952.72;5026563;28;20129;-72
2023/03/15 00:58:07;;;;;;;15.07;5.70;;;;;;;2.37;100.00;100946.19;5034839;28;20037;-72
2023/03/15 01:00:33;;;;;;;21.88;5.57;;;;;;;2.38;100.00;100952.97;5023367;28;20151;-73
2023/03/15 01:02:59;;;;;;;14.15;5.78;;;;;;;2.47;100.00;100960.88;5012216;28;20060;-73
2023/03/15 01:05:25;;;;;;;18.98;6.15;;;;;;;2.37;100.00;100961.56;5022151;28;20034;-73
2023/03/15 01:07:51;;;;;;;22.25;7.47;;;;;;;2.47;100.00;100957.50;5028055;28;20047;-73
2023/03/15 01:10:18;;;;;;;23.23;7.05;;;;;;;2.44;100.00;100960.25;5042008;28;20034;-73
2023/03/15 01:12:44;;;;;;;17.58;6.30;;;;;;;2.43;100.00;100959.44;5024680;28;20102;-73
2023/03/15 01:15:12;;;;;;;20.13;6.53;;;;;;;2.54;100.00;100961.28;5023301;28;20029;-73
2023/03/15 01:17:39;;;;;;;20.77;6.60;;;;;;;2.51;100.00;100964.06;5023157;28;20028;-72
2023/03/15 01:20:05;;;;;;;24.55;8.50;;;;;;;2.42;100.00;100968.00;5021906;28;20102;-73
2023/03/15 01:22:31;;;;;;;20.85;6.18;;;;;;;2.49;100.00;100963.34;5027175;28;20146;-73
2023/03/15 01:24:56;;;;;;;14.80;5.63;;;;;;;2.46;100.00;100966.09;5025196;28;20187;-72
2023/03/15 01:27:22;;;;;;;26.63;6.80;;;;;;;2.46;100.00;100963.53;5026366;28;20647;-72
2023/03/15 01:29:48;;;;;;;14.35;5.80;;;;;;;2.45;100.00;100962.72;5026267;28;20029;-72
2023/03/15 01:32:14;;;;;;;16.83;6.13;;;;;;;2.48;100.00;100972.72;5027717;28;20033;-74
2023/03/15 01:34:42;;;;;;;22.60;7.05;;;;;;;2.46;100.00;100964.34;5028450;28;20037;-72
2023/03/15 01:37:08;;;;;;;22.45;7.13;;;;;;;2.48;100.00;100972.72;5026977;28;20082;-73
2023/03/15 01:39:40;;;;;;;17.98;6.93;;;;;;;2.54;100.00;100968.94;5028478;28;20122;-73
2023/03/15 01:42:06;;;;;;;25.35;6.55;;;;;;;2.39;100.00;100968.19;5029056;28;20728;-72
2023/03/15 01:44:54;;;;;;;20.70;6.65;;;;;;;2.45;100.00;100972.94;5030219;28;20098;-73
2023/03/15 01:47:20;;;;;;;19.95;7.03;;;;;;;2.46;100.00;100972.00;5034776;28;20430;-73
2023/03/15 01:49:50;;;;;;;16.48;6.85;;;;;;;2.50;100.00;100978.56;5022938;28;20445;-72
2023/03/15 01:52:24;;;;;;;18.55;6.65;;;;;;;2.41;100.00;100981.75;5030069;28;20040;-73
2023/03/15 01:55:00;;;;;;;18.30;6.30;;;;;;;2.36;100.00;100976.09;5042704;28;20717;-72
2023/03/15 01:57:31;;;;;;;16.60;7.47;;;;;;;2.43;100.00;100985.03;5033557;28;20043;-72
2023/03/15 02:00:10;;;;;;;18.50;6.55;;;;;;;2.43;100.00;100990.16;5042966;28;20037;-73
2023/03/15 02:02:45;;;;;;;9.95;5.07;;;;;;;2.42;100.00;100987.69;5047105;28;20070;-73
2023/03/15 02:05:20;;;;;;;10.13;4.28;;;;;;;2.45;100.00;100983.19;5025775;28;20522;-73
2023/03/15 02:07:53;;;;;;;9.48;3.95;;;;;;;2.38;100.00;100987.06;5038791;28;20033;-73
2023/03/15 02:10:32;;;;;;;9.00;3.22;;;;;;;2.39;100.00;100980.19;5020365;28;20029;-73
2023/03/15 02:13:01;;;;;;;5.05;2.67;;;;;;;2.28;100.00;100975.75;5012900;28;20064;-72
2023/03/15 02:15:27;;;;;;;5.45;2.33;;;;;;;2.27;100.00;100979.25;5029335;28;20041;-72
2023/03/15 02:17:53;;;;;;;6.63;2.90;;;;;;;2.22;100.00;100976.16;5022714;28;20179;-72
2023/03/15 02:20:39;;;;;;;6.15;2.72;;;;;;;2.15;100.00;100985.97;5030737;28;20064;-72
2023/03/15 02:23:11;;;;;;;7.13;2.60;;;;;;;2.08;100.00;100979.59;5030376;28;20057;-72
2023/03/15 02:26:05;;;;;;;4.20;2.45;;;;;;;1.99;100.00;100983.53;5013089;28;20039;-72
2023/03/15 02:28:31;;;;;;;7.10;2.55;;;;;;;2.01;100.00;100986.81;5024341;28;20112;-74
2023/03/15 02:30:57;;;;;;;5.03;2.63;;;;;;;2.09;100.00;100991.44;5008460;28;20453;-72
2023/03/15 02:33:25;;;;;;;6.85;3.08;;;;;;;1.99;100.00;101000.63;5012135;28;20029;-73
2023/03/15 02:35:52;;;;;;;5.70;2.90;;;;;;;2.03;100.00;101004.63;5025184;28;20118;-73
2023/03/15 02:38:18;;;;;;;5.95;3.55;;;;;;;1.91;100.00;101001.09;5023115;28;21732;-73
2023/03/15 02:40:45;;;;;;;5.80;3.70;;;;;;;1.90;100.00;101000.28;5032979;28;20033;-73
2023/03/15 02:43:19;;;;;;;5.93;2.88;;;;;;;1.83;100.00;101003.28;5028410;28;20112;-72
2023/03/15 02:45:46;;;;;;;7.53;4.07;;;;;;;1.94;100.00;100999.19;5021267;28;20061;-72
2023/03/15 02:48:12;;;;;;;8.68;5.25;;;;;;;1.90;100.00;101007.97;5014115;28;20040;-73
2023/03/15 02:50:38;;;;;;;7.88;4.45;;;;;;;1.94;100.00;101013.69;5022651;28;20036;-73
2023/03/15 02:53:04;;;;;;;7.40;4.40;;;;;;;1.97;100.00;101015.25;5026702;28;20031;-72
2023/03/15 02:55:33;;;;;;;12.93;5.68;;;;;;;1.82;100.00;101011.91;5007048;28;20034;-72
2023/03/15 02:58:00;;;;;;;14.85;5.95;;;;;;;1.75;100.00;101012.28;5030821;28;20123;-73
2023/03/15 03:00:26;;;;;;;13.88;5.53;;;;;;;1.80;100.00;101019.66;5011204;28;20034;-72
2023/03/15 03:02:52;;;;;;;10.45;5.65;;;;;;;1.78;100.00;101030.91;5029590;28;20633;-72
2023/03/15 03:05:17;;;;;;;11.00;5.45;;;;;;;1.82;100.00;101029.78;5027396;28;20082;-72
2023/03/15 03:07:43;;;;;;;8.80;5.90;;;;;;;1.75;100.00;101030.19;5028158;28;20047;-72
2023/03/15 03:10:13;;;;;;;11.15;5.47;;;;;;;1.87;100.00;101033.72;5023060;28;20040;-72
2023/03/15 03:12:46;;;;;;;12.65;6.53;;;;;;;1.82;100.00;101030.59;5026845;28;20036;-72
2023/03/15 03:15:13;;;;;;;10.35;5.25;;;;;;;1.81;100.00;101044.31;5025273;28;20475;-72
2023/03/15 03:17:39;;;;;;;10.32;5.68;;;;;;;1.80;100.00;101044.41;5013934;28;20095;-72
2023/03/15 03:20:13;;;;;;;9.43;5.35;;;;;;;1.73;100.00;101052.47;5025856;28;20040;-72
2023/03/15 03:22:43;;;;;;;9.13;5.20;;;;;;;1.78;100.00;101052.19;5027466;28;20025;-72
2023/03/15 03:25:10;;;;;;;11.82;6.20;;;;;;;1.82;100.00;101050.25;4978264;28;1154923;-73
2023/03/15 03:27:37;;;;;;;11.45;6.13;;;;;;;1.92;100.00;101052.16;5016171;28;20041;-72
2023/03/15 03:30:08;;;;;;;10.10;5.25;;;;;;;1.82;100.00;101056.19;5030368;28;20084;-73
2023/03/15 03:32:34;;;;;;;9.07;5.32;;;;;;;1.79;100.00;101071.72;5022161;28;20426;-73
2023/03/15 03:35:00;;;;;;;10.43;5.70;;;;;;;1.97;100.00;101068.97;5019189;28;20037;-72
2023/03/15 03:37:26;;;;;;;12.02;5.45;;;;;;;1.83;100.00;101078.28;5024063;28;20026;-73
2023/03/15 03:39:59;;;;;;;11.57;6.30;;;;;;;1.90;100.00;101076.16;5010239;28;20036;-73
2023/03/15 03:42:24;;;;;;;9.57;5.68;;;;;;;1.82;100.00;101084.31;5046430;28;20075;-73
2023/03/15 03:44:50;;;;;;;13.32;5.38;;;;;;;1.87;100.00;101089.16;5022484;28;20067;-72
2023/03/15 03:47:17;;;;;;;13.32;6.28;;;;;;;1.82;100.00;101091.97;5028323;28;20032;-73
2023/03/15 03:49:43;;;;;;;12.57;6.22;;;;;;;1.73;100.00;101088.25;5025307;28;20045;-73
2023/03/15 03:52:08;;;;;;;11.15;6.25;;;;;;;1.80;100.00;101093.00;5013496;28;20390;-73
2023/03/15 03:54:34;;;;;;;14.18;7.25;;;;;;;1.77;100.00;101105.97;5022169;28;20072;-73
2023/03/15 03:57:00;;;;;;;13.85;6.95;;;;;;;1.77;100.00;101105.97;5010957;28;20044;-73
2023/03/15 03:59:30;;;;;;;11.27;6.78;;;;;;;1.67;100.00;101101.38;5024795;28;20087;-73
2023/03/15 04:02:02;;;;;;;14.35;7.10;;;;;;;1.80;100.00;101119.38;5028085;28;20036;-74
2023/03/15 04:04:28;;;;;;;13.75;7.40;;;;;;;1.74;100.00;101119.75;5010190;28;20036;-73
2023/03/15 04:06:54;;;;;;;10.80;7.10;;;;;;;1.72;100.00;101127.50;5029305;28;20025;-73
2023/03/15 04:09:24;;;;;;;14.32;7.55;;;;;;;1.65;100.00;101130.53;5024293;28;20029;-73
2023/03/15 04:11:51;;;;;;;13.77;8.52;;;;;;;1.62;100.00;101128.13;5020082;28;20098;-73
2023/03/15 04:14:17;;;;;;;16.95;8.68;;;;;;;1.43;100.00;101133.50;5026827;28;20403;-73
2023/03/15 04:16:45;;;;;;;13.65;8.10;;;;;;;1.42;100.00;101130.13;5030446;28;20035;-73
2023/03/15 04:19:14;;;;;;;13.57;8.80;;;;;;;1.41;100.00;101127.66;5011000;28;20061;-73
2023/03/15 04:21:46;;;;;;;14.30;8.27;;;;;;;1.38;100.00;101126.13;5023929;28;20099;-73
2023/03/15 04:24:41;;;;;;;14.07;8.40;;;;;;;1.37;100.00;101134.69;4958120;28;20047;-73
2023/03/15 04:27:06;;;;;;;14.32;7.97;;;;;;;1.33;100.00;101135.75;5028000;28;20044;-73
2023/03/15 04:30:04;;;;;;;14.00;7.97;;;;;;;1.35;100.00;101127.09;5004791;28;20033;-74
2023/03/15 04:32:42;;;;;;;13.60;8.07;;;;;;;1.40;100.00;101131.97;5041633;28;20064;-73
2023/03/15 04:35:36;;;;;;;14.95;8.45;;;;;;;1.41;100.00;101133.59;5022263;28;20552;-73
2023/03/15 04:38:26;;;;;;;13.75;8.30;;;;;;;1.34;100.00;101133.13;5024847;28;20048;-73
2023/03/15 04:41:13;;;;;;;16.67;9.57;;;;;;;1.38;100.00;101144.00;5040487;28;20036;-72
2023/03/15 04:44:02;;;;;;;14.55;8.80;;;;;;;1.36;100.00;101146.63;5028609;28;20040;-73
2023/03/15 04:46:47;;;;;;;16.65;8.43;;;;;;;1.41;100.00;101154.03;5042350;28;20048;-73
2023/03/15 04:49:31;;;;;;;14.60;8.30;;;;;;;1.41;100.00;101164.25;5030363;28;20064;-73
2023/03/15 04:52:15;;;;;;;12.48;7.88;;;;;;;1.46;100.00;101177.59;5029170;28;20096;-73
2023/03/15 04:55:06;;;;;;;13.38;7.55;;;;;;;1.39;100.00;101175.47;5027813;28;20029;-73
2023/03/15 04:57:58;;;;;;;12.25;7.85;;;;;;;1.36;100.00;101171.38;5031308;28;20114;-73
2023/03/15 05:00:42;;;;;;;12.00;7.57;;;;;;;1.59;100.00;101171.78;5025864;28;20041;-73
2023/03/15 05:03:23;;;;;;;15.00;8.15;;;;;;;1.59;100.00;101179.47;5019654;28;20545;-73
2023/03/15 05:05:57;;;;;;;13.93;7.63;;;;;;;1.51;100.00;101185.03;5030541;28;20059;-73
2023/03/15 05:08:45;;;;;;;12.52;7.78;;;;;;;1.45;100.00;101186.19;5030316;28;20060;-73
2023/03/15 05:11:30;;;;;;;13.75;8.63;;;;;;;1.47;100.00;101186.94;5043088;28;20071;-73
2023/03/15 05:14:06;;;;;;;12.10;7.97;;;;;;;1.38;100.00;101184.06;5024051;28;20068;-73
2023/03/15 05:16:34;;;;;;;12.82;8.90;;;;;;;1.50;100.00;101194.41;5048493;28;20503;-72
2023/03/15 05:19:10;;;;;;;17.52;8.68;;;;;;;1.46;100.00;101200.59;5013595;28;20029;-73
2023/03/15 05:21:53;;;;;;;14.38;8.73;;;;;;;1.50;100.00;101211.47;5018084;28;20021;-73
2023/03/15 05:24:38;;;;;;;16.38;9.07;;;;;;;1.56;100.00;101211.13;5034002;28;20045;-73
2023/03/15 05:27:22;;;;;;;15.38;9.48;;;;;;;1.52;100.00;101215.59;5023863;28;20064;-73
2023/03/15 05:30:07;;;;;;;15.40;9.52;;;;;;;1.58;100.00;101221.25;5031754;28;20463;-72
2023/03/15 05:32:59;;;;;;;15.77;9.63;;;;;;;1.53;100.00;101222.34;5028727;28;20037;-73
2023/03/15 05:35:30;;;;;;;20.27;10.75;;;;;;;1.53;100.00;101224.91;5028747;28;20072;-73
2023/03/15 05:38:14;;;;;;;36.55;18.83;;;;;;;1.58;100.00;101222.06;5034942;28;20609;-73
2023/03/15 05:41:03;;;;;;;28.73;14.98;;;;;;;1.49;100.00;101230.28;5025610;28;20045;-73
2023/03/15 05:43:36;;;;;;;20.38;12.18;;;;;;;1.47;100.00;101239.75;5026659;28;20127;-73
2023/03/15 05:46:30;;;;;;;18.45;10.55;;;;;;;1.61;100.00;101244.09;5025297;28;20102;-73
2023/03/15 05:49:05;;;;;;;38.20;20.73;;;;;;;1.61;100.00;101244.94;5027189;28;20433;-72
2023/03/15 05:51:38;;;;;;;32.00;17.63;;;;;;;1.61;100.00;101247.47;5009955;28;20036;-73
2023/03/15 05:54:22;;;;;;;22.52;13.43;;;;;;;1.58;100.00;101254.50;5026580;28;20123;-73
2023/03/15 05:56:47;;;;;;;23.80;13.70;;;;;;;1.66;100.00;101255.72;5028287;28;20180;-73
2023/03/15 05:59:20;;;;;;;31.65;17.63;;;;;;;1.56;100.00;101254.59;5023020;28;20037;-72
2023/03/15 06:02:08;;;;;;;44.47;23.15;;;;;;;1.50;100.00;101265.16;5043658;28;20041;-73
2023/03/15 06:04:43;;;;;;;28.95;16.27;;;;;;;1.59;100.00;101269.75;5016843;28;20041;-72
2023/03/15 06:07:11;;;;;;;38.55;20.55;;;;;;;1.50;100.00;101265.97;5044497;28;20033;-72
2023/03/15 06:09:37;;;;;;;41.17;22.38;;;;;;;1.54;100.00;101269.19;5031466;28;20048;-73
2023/03/15 06:12:04;;;;;;;46.83;23.02;;;;;;;1.54;100.00;101272.59;5029818;28;20017;-72
2023/03/15 06:14:30;;;;;;;32.63;17.70;;;;;;;1.57;100.00;101275.88;5029997;28;20041;-73
2023/03/15 06:17:00;;;;;;;54.03;26.83;;;;;;;1.64;100.00;101280.56;5022637;28;20391;-73
2023/03/15 06:19:28;;;;;;;59.42;27.02;;;;;;;1.60;100.00;101280.78;5025985;28;20041;-72
2023/03/15 06:21:53;;;;;;;38.53;20.52;;;;;;;1.56;100.00;101280.16;5028727;28;20051;-73
2023/03/15 06:24:25;;;;;;;66.82;27.10;;;;;;;1.66;100.00;101286.41;5041544;28;20041;-73
2023/03/15 06:26:53;;;;;;;48.65;23.17;;;;;;;1.70;100.00;101294.72;5021619;28;20053;-72
2023/03/15 06:29:20;;;;;;;56.25;25.20;;;;;;;1.82;100.00;101288.09;5024927;28;20069;-73
2023/03/15 06:31:48;;;;;;;31.23;17.85;;;;;;;1.74;100.00;101291.91;5023288;28;20677;-73
2023/03/15 06:34:16;;;;;;;34.42;18.52;;;;;;;1.75;100.00;101306.34;5027157;28;20041;-73
2023/03/15 06:36:41;;;;;;;30.83;17.42;;;;;;;1.76;100.00;101309.72;5029241;28;20041;-72
2023/03/15 06:39:10;;;;;;;31.55;18.02;;;;;;;1.75;100.00;101311.47;5011493;28;20036;-72
2023/03/15 06:41:36;;;;;;;27.00;14.90;;;;;;;1.72;100.00;101314.19;5027769;28;20033;-73
2023/03/15 06:44:10;;;;;;;28.40;14.65;;;;;;;1.84;100.00;101322.06;5023762;28;20594;-72
2023/03/15 06:46:37;;;;;;;29.05;15.15;;;;;;;1.86;100.00;101336.41;5013730;28;20041;-72
2023/03/15 06:49:04;;;;;;;51.17;23.17;;;;;;;1.82;100.00;101324.72;5024257;28;20157;-73
2023/03/15 06:51:29;;;;;;;45.15;20.40;;;;;;;1.78;100.00;101325.78;5028014;28;20539;-72
2023/03/15 06:53:55;;;;;;;41.17;21.13;;;;;;;1.81;100.00;101333.31;5004772;28;20048;-72
2023/03/15 06:56:21;;;;;;;37.45;19.33;;;;;;;1.80;100.00;101352.09;5031294;28;20123;-73
2023/03/15 06:58:47;;;;;;;33.83;16.45;;;;;;;1.81;100.00;101352.91;5027216;28;20047;-73
2023/03/15 07:01:13;;;;;;;40.50;20.52;;;;;;;1.87;100.00;101363.66;5019616;28;20483;-72
2023/03/15 07:03:39;;;;;;;35.33;18.30;;;;;;;1.87;100.00;101366.19;5044512;28;20166;-73
2023/03/15 07:06:05;;;;;;;41.78;19.70;;;;;;;1.98;100.00;101364.75;5023178;28;20147;-73
2023/03/15 07:08:30;;;;;;;35.47;18.17;;;;;;;2.03;100.00;101371.28;5021083;28;20026;-72
2023/03/15 07:10:56;;;;;;;29.73;15.10;;;;;;;2.12;100.00;101375.88;5026309;28;20044;-73
2023/03/15 07:17:32;;;;;;;24.80;13.00;;;;;;;2.31;100.00;101387.63;5047091;28;20074;-73
2023/03/15 07:19:58;;;;;;;24.17;12.63;;;;;;;2.30;100.00;101383.44;5046515;28;20387;-72
2023/03/15 07:22:57;;;;;;;39.17;18.83;;;;;;;2.28;100.00;101387.78;5025164;28;20033;-72
2023/03/15 07:40:43;;;;;;;68.03;23.48;;;;;;;2.60;100.00;101419.22;5044252;28;20194;-72
2023/03/15 07:43:08;;;;;;;112.60;35.90;;;;;;;2.60;100.00;101424.34;5045390;28;20037;-72
2023/03/15 07:45:34;;;;;;;51.80;19.00;;;;;;;2.62;100.00;101416.56;5026114;28;20041;-72
2023/03/15 08:03:32;;;;;;;41.47;18.35;;;;;;;3.05;100.00;101447.34;5044514;28;20115;-72
2023/03/15 08:10:49;;;;;;;20.25;11.63;;;;;;;4.14;100.00;101463.72;5039885;28;20044;-72
2023/03/15 08:13:55;;;;;;;22.80;11.70;;;;;;;3.95;100.00;101469.19;5035220;28;20032;-72
2023/03/15 08:20:51;;;;;;;29.15;13.52;;;;;;;3.67;100.00;101477.78;5046035;28;20088;-72
2023/03/15 09:51:11;;;;;;;13.63;5.63;;;;;;;7.35;75.01;101545.25;4942264;29;20042;-73
2023/03/15 09:58:04;;;;;;;13.15;4.60;;;;;;;6.38;76.87;101553.19;5043629;28;20044;-72
2023/03/15 10:08:49;;;;;;;15.10;3.92;;;;;;;6.19;78.37;101553.69;5041728;28;20040;-72
2023/03/15 11:01:12;;;;;;;8.65;2.10;;;;;;;6.70;65.13;101562.09;5046662;28;20711;-72
2023/03/15 12:23:34;;;;;;;5.25;1.50;;;;;;;8.05;55.92;101593.19;5039807;28;20044;-72
2023/03/15 14:59:35;;;;;;;5.80;1.50;;;;;;;9.22;48.72;101607.09;5043050;23;20133;-77
2023/03/15 15:02:01;;;;;;;3.15;1.50;;;;;;;9.43;47.66;101614.03;5005925;28;20463;-78
2023/03/15 15:04:32;;;;;;;5.65;1.50;;;;;;;9.25;46.81;101614.63;4999056;28;20040;-78
2023/03/15 15:06:58;;;;;;;3.25;1.00;;;;;;;9.19;47.58;101609.94;5008112;28;20133;-80
2023/03/15 15:09:27;;;;;;;6.10;1.20;;;;;;;9.10;47.51;101610.72;4994491;28;20056;-79
2023/03/15 15:11:54;;;;;;;5.50;1.60;;;;;;;9.04;47.17;101603.44;5028652;28;20064;-81
2023/03/15 16:14:17;;;;;;;2.67;0.80;;;;;;;8.37;49.58;101577.72;3382596;25;20033;-72
2023/03/15 16:16:43;;;;;;;3.85;1.05;;;;;;;8.38;49.75;101583.72;5057575;28;20479;-72
2023/03/15 16:19:08;;;;;;;6.63;1.00;;;;;;;8.41;50.83;101580.09;5059081;28;20570;-72
2023/03/15 16:21:46;;;;;;;7.68;1.17;;;;;;;8.50;50.20;101577.59;5059504;28;20040;-72
2023/03/15 16:24:27;;;;;;;8.20;1.10;;;;;;;8.27;49.98;101583.75;5078126;22;20049;-80
2023/03/15 16:27:05;;;;;;;2.95;1.42;;;;;;;8.27;49.38;101584.59;5013528;28;20404;-79
2023/03/15 16:29:47;;;;;;;1.63;0.65;;;;;;;8.25;50.45;101580.47;4998302;28;20046;-80
2023/03/15 16:32:17;;;;;;;2.97;0.88;;;;;;;8.21;51.36;101582.47;5012241;28;20034;-79
2023/03/15 16:34:44;;;;;;;6.22;1.20;;;;;;;8.16;50.28;101580.25;4990598;28;20383;-78
2023/03/15 16:37:12;;;;;;;3.88;0.90;;;;;;;8.14;50.65;101586.50;5011494;28;20187;-78
2023/03/15 16:39:40;;;;;;;4.28;1.10;;;;;;;8.05;50.45;101594.97;5010819;28;20399;-80
2023/03/15 16:42:09;;;;;;;6.88;0.82;;;;;;;7.98;50.60;101590.25;5026331;28;20041;-79
2023/03/15 16:44:36;;;;;;;5.13;1.00;;;;;;;7.87;50.57;101592.84;5026233;28;20017;-78
2023/03/15 16:47:01;;;;;;;5.10;1.55;;;;;;;7.82;50.28;101594.16;5028541;28;20399;-82
2023/03/15 16:49:27;;;;;;;2.70;1.00;;;;;;;7.81;50.74;101606.25;5024987;28;20084;-78
2023/03/15 16:51:53;;;;;;;5.07;1.13;;;;;;;7.76;51.04;101609.19;5011676;28;20045;-79
2023/03/15 16:54:19;;;;;;;5.72;1.42;;;;;;;7.71;47.87;101592.41;4984295;28;20034;-79
2023/03/15 16:56:44;;;;;;;4.53;1.13;;;;;;;7.60;49.64;101603.56;4972533;28;20480;-79
2023/03/15 16:59:15;;;;;;;3.35;1.48;;;;;;;7.65;48.57;101608.34;5008097;28;20038;-81
2023/03/15 17:01:41;;;;;;;4.72;1.13;;;;;;;7.54;50.47;101607.41;4979932;28;20502;-79
2023/03/15 17:04:07;;;;;;;7.03;1.20;;;;;;;7.44;51.52;101611.66;5007832;28;20054;-79
2023/03/15 17:06:33;;;;;;;3.65;1.00;;;;;;;7.33;50.84;101609.88;4991317;28;20404;-79
2023/03/15 17:09:10;;;;;;;4.70;1.33;;;;;;;7.32;50.77;101613.38;4988844;28;20041;-78
2023/03/15 17:11:40;;;;;;;4.72;1.10;;;;;;;7.22;50.20;101615.81;4994810;28;20468;-78
2023/03/15 17:14:09;;;;;;;5.35;1.30;;;;;;;7.25;49.99;101613.94;5012010;28;20045;-78
2023/03/15 17:16:35;;;;;;;6.90;1.38;;;;;;;7.11;50.59;101620.13;5015796;28;20029;-80
2023/03/15 17:19:01;;;;;;;2.80;1.40;;;;;;;7.04;50.24;101626.69;5011899;28;20057;-79
2023/03/15 17:21:28;;;;;;;8.95;3.20;;;;;;;6.90;51.81;101625.13;5012943;28;20029;-80
2023/03/15 17:23:53;;;;;;;7.68;1.98;;;;;;;6.83;52.14;101628.13;5010782;28;20399;-79
2023/03/15 17:26:21;;;;;;;6.60;1.63;;;;;;;6.70;51.66;101627.38;4995406;28;20037;-80
2023/03/15 17:28:48;;;;;;;5.88;1.45;;;;;;;6.66;51.06;101623.38;5000118;28;20033;-81
2023/03/15 17:31:15;;;;;;;2.30;1.13;;;;;;;6.58;51.73;101630.84;5030152;28;21357;-79
2023/03/15 17:33:41;;;;;;;3.58;1.00;;;;;;;6.52;53.31;101632.09;5028888;28;20442;-79
2023/03/15 17:36:15;;;;;;;2.88;0.82;;;;;;;6.50;53.84;101636.53;4997126;28;20042;-79
2023/03/15 17:38:41;;;;;;;6.50;1.23;;;;;;;6.43;55.19;101637.91;4994683;28;20476;-79
2023/03/15 17:41:28;;;;;;;6.05;2.05;;;;;;;6.40;54.94;101638.94;4996127;28;20034;-79
2023/03/15 17:43:54;;;;;;;4.53;1.45;;;;;;;6.35;55.08;101637.63;5009120;28;20146;-78
2023/03/15 17:46:26;;;;;;;5.40;1.30;;;;;;;6.32;56.08;101635.25;5007929;28;20097;-77
2023/03/15 17:48:52;;;;;;;5.63;1.48;;;;;;;6.26;56.59;101644.22;4995320;28;20029;-78
2023/03/15 17:51:21;;;;;;;5.82;1.30;;;;;;;6.22;57.12;101641.03;5026161;28;20511;-78
2023/03/15 17:53:47;;;;;;;4.70;1.00;;;;;;;6.15;58.20;101649.31;4993243;28;20030;-78
2023/03/15 17:56:12;;;;;;;5.80;1.45;;;;;;;6.10;58.88;101653.94;5027875;28;20125;-78
2023/03/15 17:58:38;;;;;;;3.13;1.25;;;;;;;6.03;59.84;101651.81;5028533;28;20037;-79
2023/03/15 18:01:12;;;;;;;5.93;1.90;;;;;;;5.97;59.44;101656.53;5014416;28;20045;-79
2023/03/15 18:03:39;;;;;;;7.47;1.88;;;;;;;5.88;59.96;101660.53;5024996;28;20377;-81
2023/03/15 18:06:06;;;;;;;6.18;1.50;;;;;;;5.85;60.67;101658.16;5001264;28;21886;-79
2023/03/15 18:08:31;;;;;;;6.65;2.03;;;;;;;5.80;61.45;101655.91;5015796;28;20049;-78
2023/03/15 18:10:57;;;;;;;3.67;1.65;;;;;;;5.77;62.24;101656.13;5018415;28;20091;-79
2023/03/15 18:13:25;;;;;;;7.10;1.85;;;;;;;5.73;62.49;101651.28;5014265;28;20041;-79
2023/03/15 18:15:51;;;;;;;5.80;1.42;;;;;;;5.69;62.78;101657.53;5017748;28;20508;-80
2023/03/15 18:18:17;;;;;;;6.35;1.80;;;;;;;5.64;63.46;101660.44;5000799;28;20109;-79
2023/03/15 18:20:44;;;;;;;8.85;2.65;;;;;;;5.55;63.56;101664.44;4999884;28;20048;-79
2023/03/15 18:23:14;;;;;;;9.10;2.60;;;;;;;5.42;64.53;101664.41;5017039;28;20503;-78
2023/03/15 18:25:40;;;;;;;6.95;2.42;;;;;;;5.38;64.80;101669.88;4996535;28;20084;-78
2023/03/15 18:28:05;;;;;;;6.15;2.50;;;;;;;5.34;65.37;101665.88;5000041;28;20100;-79
2023/03/15 18:30:32;;;;;;;5.53;2.40;;;;;;;5.29;65.98;101679.00;5031134;28;20026;-80
2023/03/15 18:32:58;;;;;;;8.25;2.72;;;;;;;5.27;66.75;101673.16;5002956;28;20531;-79
2023/03/15 18:35:35;;;;;;;8.13;2.58;;;;;;;5.23;67.40;101685.38;5001468;28;20052;-79
2023/03/15 18:38:02;;;;;;;7.05;2.08;;;;;;;5.18;67.22;101684.03;5016375;28;20041;-79
2023/03/15 18:40:29;;;;;;;3.85;1.80;;;;;;;5.11;67.94;101681.06;5000205;28;20511;-79
2023/03/15 18:42:56;;;;;;;5.68;1.90;;;;;;;5.08;67.85;101678.66;5013460;28;20058;-79
2023/03/15 18:45:31;;;;;;;7.20;1.90;;;;;;;5.01;67.78;101679.97;5012089;28;20434;-79
2023/03/15 18:47:58;;;;;;;7.20;2.20;;;;;;;4.95;68.51;101680.38;5011410;28;20025;-79
2023/03/15 18:50:25;;;;;;;3.75;1.55;;;;;;;4.92;69.38;101686.53;5015502;28;20053;-80
2023/03/15 18:52:50;;;;;;;5.07;1.83;;;;;;;4.85;69.60;101680.97;5002390;28;20039;-79
2023/03/15 18:55:18;;;;;;;5.72;1.67;;;;;;;4.82;70.00;101675.19;5016127;28;20049;-79
2023/03/15 18:57:44;;;;;;;4.47;1.92;;;;;;;4.78;70.45;101681.44;5027007;28;20128;-82
2023/03/15 19:00:24;;;;;;;10.80;2.40;;;;;;;4.73;70.33;101681.75;5012708;28;22848;-80
2023/03/15 19:02:50;;;;;;;8.73;2.97;;;;;;;4.68;69.62;101678.63;5014584;28;20072;-82
2023/03/15 19:05:16;;;;;;;8.38;2.85;;;;;;;4.64;68.79;101674.59;5010041;28;20071;-80
2023/03/15 19:07:41;;;;;;;8.63;2.90;;;;;;;4.85;62.75;101680.13;5014014;28;20029;-82
2023/03/15 19:10:10;;;;;;;11.75;3.10;;;;;;;4.72;63.05;101676.69;4996337;28;20025;-79
2023/03/15 19:12:36;;;;;;;6.40;2.65;;;;;;;4.62;64.43;101684.97;5015657;28;20044;-79
2023/03/15 19:15:03;;;;;;;7.95;2.60;;;;;;;4.64;63.83;101684.88;4993886;28;20045;-79
2023/03/15 19:17:28;;;;;;;5.15;2.40;;;;;;;4.57;63.93;101681.03;5014828;28;20049;-81
2023/03/15 19:19:53;;;;;;;6.25;2.60;;;;;;;4.52;65.69;101677.94;4996122;28;20033;-80
2023/03/15 19:22:19;;;;;;;6.60;2.85;;;;;;;4.54;65.68;101670.94;5003499;28;20036;-80
2023/03/15 19:24:44;;;;;;;14.82;2.97;;;;;;;4.48;65.69;101675.56;4999444;28;20030;-80
2023/03/15 19:27:10;;;;;;;4.38;2.88;;;;;;;4.40;66.54;101662.34;5029958;28;20452;-80
2023/03/15 19:29:36;;;;;;;5.90;2.85;;;;;;;4.50;65.05;101670.31;4991645;28;20033;-80
2023/03/15 19:32:02;;;;;;;10.00;3.28;;;;;;;4.51;65.08;101679.69;5022928;28;20411;-79
2023/03/15 19:34:28;;;;;;;8.43;2.80;;;;;;;4.40;65.66;101677.75;5026384;28;20049;-79
2023/03/15 19:36:53;;;;;;;11.10;3.80;;;;;;;4.52;65.75;101677.94;5006189;28;20026;-79
2023/03/15 19:39:19;;;;;;;9.02;3.50;;;;;;;4.45;66.76;101672.38;4992042;28;20052;-79
2023/03/15 19:41:45;;;;;;;6.82;3.50;;;;;;;4.47;66.50;101676.47;4993227;28;20034;-79
2023/03/15 19:44:11;;;;;;;9.48;3.15;;;;;;;4.41;67.57;101670.91;4984358;28;20041;-79